Time;durP1;ratioP1;P1;durP2;ratioP2;P2;SDS_P1;SDS_P2;PMS_P1;PMS_P2;Temp;Humidity;BMP_temperature;BMP_pressure;BME280_temperature;BME280_humidity;BME280_pressure;Samples;Min_cycle;Max_cycle;Signal;HPM_P1;HPM_P2
2022/12/24 07:34:11;;;;;;;18.60;7.85;;;9.40;99.90;;;;;;7600807;19;20361;-76
2022/12/24 07:36:43;;;;;;;11.60;3.63;;;9.40;99.90;;;;;;7610486;19;20014;-76
2022/12/24 07:39:15;;;;;;;3.55;1.80;;;9.50;99.90;;;;;;7610570;19;20010;-76
2022/12/24 07:41:49;;;;;;;3.72;1.27;;;9.60;99.90;;;;;;7624557;19;20010;-76
2022/12/24 07:44:21;;;;;;;0.93;0.70;;;9.70;99.90;;;;;;7608694;19;20018;-75
2022/12/24 07:46:53;;;;;;;0.45;0.40;;;9.70;99.90;;;;;;7627894;19;20056;-76
2022/12/24 07:49:26;;;;;;;1.57;0.80;;;9.80;99.70;;;;;;7591726;19;20038;-75
2022/12/24 07:51:58;;;;;;;1.05;0.60;;;9.90;99.00;;;;;;7578616;19;20283;-75
2022/12/24 07:54:30;;;;;;;3.00;1.20;;;9.90;98.40;;;;;;7587445;19;20014;-75
2022/12/24 07:57:02;;;;;;;1.80;0.60;;;9.90;98.30;;;;;;7628008;19;20018;-75
2022/12/24 07:59:34;;;;;;;1.40;0.88;;;10.00;97.80;;;;;;7598089;19;20044;-76
2022/12/24 08:02:09;;;;;;;0.88;0.52;;;9.90;98.40;;;;;;7597295;19;20409;-75
2022/12/24 08:04:49;;;;;;;1.48;0.88;;;10.00;97.20;;;;;;7604667;19;20059;-75
2022/12/24 08:07:21;;;;;;;3.05;1.00;;;9.80;98.30;;;;;;7606610;19;20849;-77
2022/12/24 08:09:53;;;;;;;1.27;0.55;;;9.80;97.80;;;;;;7597716;19;20010;-75
2022/12/24 08:12:25;;;;;;;0.80;0.70;;;9.80;97.60;;;;;;7629791;19;20014;-75
2022/12/24 08:14:57;;;;;;;1.05;0.70;;;9.90;97.40;;;;;;7602026;19;20010;-75
2022/12/24 08:17:29;;;;;;;1.48;0.80;;;9.80;97.60;;;;;;7620775;19;20022;-76
2022/12/24 08:20:04;;;;;;;1.10;0.90;;;9.80;97.20;;;;;;7623806;19;20018;-76
2022/12/24 08:22:36;;;;;;;2.20;0.68;;;9.70;97.30;;;;;;7625248;19;20014;-75
2022/12/24 08:25:09;;;;;;;3.77;0.87;;;9.90;96.20;;;;;;7595407;19;20018;-76
2022/12/24 08:27:41;;;;;;;0.82;0.63;;;9.90;96.10;;;;;;7602201;19;20052;-75
2022/12/24 08:30:14;;;;;;;1.88;1.05;;;9.80;96.00;;;;;;7606535;19;20052;-77
2022/12/24 08:32:53;;;;;;;1.00;0.73;;;9.90;95.70;;;;;;7627888;19;20723;-77
2022/12/24 08:35:25;;;;;;;2.28;0.70;;;9.80;95.90;;;;;;7638500;19;20035;-78
2022/12/24 08:37:57;;;;;;;3.28;0.60;;;9.70;96.20;;;;;;7612972;19;20568;-74
2022/12/24 08:40:29;;;;;;;1.02;0.80;;;9.70;96.60;;;;;;7622422;19;20018;-75
2022/12/24 08:43:02;;;;;;;3.55;1.17;;;9.80;95.60;;;;;;7615800;19;20400;-75
2022/12/24 08:45:37;;;;;;;0.87;0.53;;;9.70;96.40;;;;;;7582298;19;20018;-76
2022/12/24 08:48:11;;;;;;;2.10;0.93;;;9.80;95.60;;;;;;7587641;19;20010;-75
2022/12/24 08:50:43;;;;;;;1.10;0.70;;;9.80;95.50;;;;;;7577844;19;20018;-75
2022/12/24 08:53:16;;;;;;;3.38;0.95;;;9.70;95.90;;;;;;7568535;19;20292;-76
2022/12/24 08:55:48;;;;;;;1.55;0.70;;;9.70;96.30;;;;;;7584073;19;20535;-73
2022/12/24 08:58:27;;;;;;;3.22;0.63;;;9.80;95.50;;;;;;7579924;19;20021;-76
2022/12/24 09:01:00;;;;;;;1.10;0.60;;;9.80;95.40;;;;;;7557702;19;21606;-76
2022/12/24 09:03:33;;;;;;;2.15;0.50;;;9.80;95.20;;;;;;7588639;19;20019;-76
2022/12/24 09:06:06;;;;;;;1.98;0.80;;;9.80;94.60;;;;;;7585136;19;20569;-76
2022/12/24 09:08:38;;;;;;;1.85;0.90;;;9.80;94.80;;;;;;7588190;19;20021;-76
2022/12/24 09:11:13;;;;;;;1.63;0.80;;;9.80;94.60;;;;;;7537687;19;20017;-76
2022/12/24 09:13:46;;;;;;;2.05;0.88;;;9.80;95.30;;;;;;7569001;19;20029;-76
2022/12/24 09:16:18;;;;;;;1.65;0.80;;;9.80;96.10;;;;;;7568099;19;20571;-76
2022/12/24 09:18:50;;;;;;;1.70;0.75;;;9.80;94.70;;;;;;7558912;19;20017;-76
2022/12/24 16:07:05;;;;;;;6.88;3.20;;;8.20;99.90;;;;;;7645322;19;20373;-75
2022/12/24 16:09:44;;;;;;;7.18;4.03;;;8.10;99.90;;;;;;7635644;19;20052;-74
2022/12/24 16:12:22;;;;;;;11.00;4.78;;;8.30;99.90;;;;;;7578019;19;20085;-75
2022/12/24 16:14:58;;;;;;;10.13;4.43;;;8.30;99.90;;;;;;7584384;19;20046;-77
2022/12/24 16:17:33;;;;;;;8.43;3.95;;;8.30;99.90;;;;;;7613278;19;20731;-76
2022/12/24 16:20:14;;;;;;;5.53;3.10;;;8.40;99.90;;;;;;7615705;19;20014;-76
2022/12/24 16:22:48;;;;;;;6.57;3.13;;;8.40;99.90;;;;;;7588984;19;20058;-77
2022/12/24 16:25:26;;;;;;;7.60;3.10;;;8.50;99.90;;;;;;7588732;19;20018;-76
2022/12/24 16:27:58;;;;;;;7.90;3.88;;;8.50;99.90;;;;;;7586698;19;20025;-76
2022/12/24 16:30:32;;;;;;;5.93;3.70;;;8.60;99.90;;;;;;7608113;19;20078;-76
2022/12/24 16:33:05;;;;;;;7.63;3.20;;;8.70;99.90;;;;;;7595795;19;20634;-76
2022/12/24 16:35:38;;;;;;;6.22;3.67;;;8.70;99.90;;;;;;7594867;19;20006;-75
2022/12/24 16:38:12;;;;;;;12.25;5.43;;;8.70;99.90;;;;;;7597692;19;20014;-75
2022/12/24 16:40:44;;;;;;;7.03;4.15;;;8.70;99.90;;;;;;7598408;19;20130;-76
2022/12/24 16:46:07;;;;;;;5.40;2.60;;;8.80;99.90;;;;;;7616475;19;20006;-75
2022/12/24 16:48:39;;;;;;;6.47;3.67;;;8.70;99.90;;;;;;7618573;19;20022;-74
2022/12/24 16:51:11;;;;;;;6.15;3.30;;;8.70;99.90;;;;;;7615311;19;20010;-75
2022/12/24 16:53:43;;;;;;;6.60;3.72;;;8.60;99.90;;;;;;7623182;19;20014;-74
2022/12/24 16:56:16;;;;;;;14.98;8.00;;;8.80;99.90;;;;;;7598587;19;20037;-76
2022/12/24 16:58:48;;;;;;;9.68;4.65;;;8.80;99.90;;;;;;7611604;19;20014;-76
2022/12/24 17:01:20;;;;;;;13.50;6.28;;;8.70;99.90;;;;;;7611937;19;20015;-76
2022/12/24 17:03:52;;;;;;;17.85;8.07;;;8.60;99.90;;;;;;7626090;19;20022;-76
2022/12/24 17:06:24;;;;;;;12.25;6.40;;;8.60;99.90;;;;;;7588192;19;20021;-77
2022/12/24 17:08:56;;;;;;;10.65;5.03;;;8.50;99.90;;;;;;7622329;19;20755;-74
2022/12/24 17:11:28;;;;;;;9.43;4.88;;;8.60;99.90;;;;;;7599669;19;20014;-77
2022/12/24 17:14:00;;;;;;;8.82;5.43;;;8.60;99.90;;;;;;7577814;19;20296;-77
2022/12/24 17:16:39;;;;;;;11.38;5.60;;;8.60;99.90;;;;;;7563834;19;20118;-76
2022/12/24 17:19:11;;;;;;;12.73;6.03;;;8.60;99.90;;;;;;7553229;19;20049;-76
2022/12/24 17:21:44;;;;;;;13.52;5.72;;;8.60;99.90;;;;;;7539761;19;20010;-74
2022/12/24 17:24:16;;;;;;;11.03;5.40;;;8.70;99.90;;;;;;7555851;19;20015;-74
2022/12/24 17:26:49;;;;;;;10.02;4.82;;;8.70;99.90;;;;;;7550359;19;20032;-74
2022/12/24 17:29:20;;;;;;;7.65;4.50;;;8.60;99.90;;;;;;7559014;19;20025;-75
2022/12/24 17:31:52;;;;;;;7.82;4.35;;;8.60;99.90;;;;;;7553949;19;20023;-74
2022/12/24 17:34:25;;;;;;;9.70;3.97;;;8.60;99.90;;;;;;7560091;19;20006;-75
2022/12/24 17:36:57;;;;;;;6.85;3.33;;;8.40;99.90;;;;;;7569116;19;20029;-75
2022/12/24 17:39:29;;;;;;;7.13;3.88;;;8.50;99.90;;;;;;7585716;19;20010;-76
2022/12/24 17:42:01;;;;;;;7.50;3.85;;;8.50;99.90;;;;;;7578245;19;20018;-75
2022/12/24 17:44:33;;;;;;;16.53;9.20;;;8.50;99.90;;;;;;7072338;19;9999805;-75
2022/12/24 17:47:05;;;;;;;19.42;8.18;;;8.50;99.90;;;;;;7547080;19;20011;-75
2022/12/24 17:49:37;;;;;;;11.90;6.93;;;8.50;99.90;;;;;;7044168;19;9999832;-74
2022/12/24 17:52:10;;;;;;;14.35;7.13;;;8.50;99.90;;;;;;7586471;19;20019;-74
2022/12/24 17:54:43;;;;;;;10.98;6.18;;;8.40;99.90;;;;;;7588690;19;20010;-74
2022/12/24 17:57:15;;;;;;;16.50;8.60;;;8.40;99.90;;;;;;7580600;19;20460;-74
2022/12/24 17:59:47;;;;;;;25.10;13.15;;;8.40;99.90;;;;;;7589183;19;20061;-74
2022/12/24 18:02:19;;;;;;;22.00;11.88;;;8.40;99.90;;;;;;7588690;19;20723;-75
2022/12/24 18:04:51;;;;;;;23.00;12.80;;;8.40;99.90;;;;;;7567906;19;20089;-76
2022/12/24 18:07:24;;;;;;;35.05;17.70;;;8.40;99.90;;;;;;7565649;19;20011;-76
2022/12/24 18:09:56;;;;;;;59.70;27.43;;;8.40;99.90;;;;;;7570989;19;20480;-75
2022/12/24 18:12:28;;;;;;;51.80;24.17;;;8.40;99.90;;;;;;7562683;19;20085;-76
2022/12/24 18:15:00;;;;;;;17.52;10.05;;;8.40;99.90;;;;;;7590485;19;20014;-75
2022/12/24 18:17:32;;;;;;;36.30;18.25;;;8.40;99.90;;;;;;7569180;19;20013;-74
2022/12/24 18:20:06;;;;;;;21.63;11.20;;;8.40;99.90;;;;;;7555295;19;20112;-76
2022/12/24 18:22:38;;;;;;;23.85;13.20;;;8.50;99.90;;;;;;7571510;19;20459;-75
2022/12/24 18:25:10;;;;;;;22.80;12.02;;;8.40;99.90;;;;;;7569440;19;20019;-75
2022/12/24 18:27:42;;;;;;;16.42;9.88;;;8.40;99.90;;;;;;7572434;19;20011;-75
2022/12/24 18:30:14;;;;;;;19.30;10.82;;;8.40;99.90;;;;;;7569108;19;20039;-76
2022/12/24 18:32:47;;;;;;;16.52;9.75;;;8.40;99.90;;;;;;7568573;19;20089;-76
2022/12/24 18:35:21;;;;;;;20.67;11.05;;;8.40;99.90;;;;;;7567684;19;20018;-75
2022/12/24 18:37:53;;;;;;;21.02;10.77;;;8.50;99.90;;;;;;7567911;19;20018;-76
2022/12/24 18:40:25;;;;;;;15.52;9.82;;;8.50;99.90;;;;;;7550198;19;20010;-75
2022/12/24 18:42:57;;;;;;;15.10;8.75;;;8.60;99.90;;;;;;7538504;19;20018;-75
2022/12/24 18:45:29;;;;;;;16.55;8.80;;;8.50;99.90;;;;;;7489508;19;20483;-76
2022/12/24 18:48:01;;;;;;;13.25;8.52;;;8.50;99.90;;;;;;7527063;19;20014;-75
2022/12/24 18:50:35;;;;;;;13.55;9.13;;;8.50;99.90;;;;;;7541645;19;20994;-74
2022/12/24 18:53:07;;;;;;;15.52;8.77;;;8.40;99.90;;;;;;7536540;19;20548;-75
2022/12/24 18:55:39;;;;;;;18.42;10.90;;;8.40;99.90;;;;;;7513759;19;20017;-77
2022/12/24 18:58:12;;;;;;;17.50;10.20;;;8.50;99.90;;;;;;7512384;19;20010;-75
2022/12/24 19:00:44;;;;;;;43.40;18.00;;;8.40;99.90;;;;;;7573505;19;20030;-76
2022/12/24 19:03:16;;;;;;;20.70;10.50;;;8.50;99.90;;;;;;7542295;19;20106;-75
2022/12/24 19:05:48;;;;;;;23.95;13.55;;;8.50;99.90;;;;;;7514782;19;20006;-74
2022/12/24 19:08:20;;;;;;;23.92;14.20;;;8.50;99.90;;;;;;7521722;19;20017;-75
2022/12/24 19:11:12;;;;;;;15.90;8.50;;;8.50;99.90;;;;;;7564679;19;20443;-75
2022/12/24 19:13:47;;;;;;;17.77;8.00;;;8.40;99.90;;;;;;7551195;19;20018;-75
2022/12/24 19:16:20;;;;;;;13.85;7.43;;;8.40;99.90;;;;;;7545348;19;20010;-76
2022/12/24 19:18:53;;;;;;;12.90;7.18;;;8.40;99.90;;;;;;7552759;19;20019;-75
2022/12/24 19:21:25;;;;;;;13.45;7.72;;;8.40;99.90;;;;;;7545724;19;20334;-75
2022/12/24 19:23:57;;;;;;;17.77;7.13;;;8.30;99.90;;;;;;7555236;19;20715;-76
2022/12/24 19:26:29;;;;;;;11.88;7.57;;;8.40;99.90;;;;;;7551816;19;20024;-75
2022/12/24 19:29:02;;;;;;;13.90;7.05;;;8.40;99.90;;;;;;7516363;19;20560;-74
2022/12/24 19:31:34;;;;;;;13.43;7.10;;;8.40;99.90;;;;;;7562207;19;20101;-75
2022/12/24 19:34:06;;;;;;;8.77;5.93;;;8.40;99.90;;;;;;7560282;19;20022;-76
2022/12/24 19:36:38;;;;;;;9.13;6.07;;;8.40;99.90;;;;;;7558401;19;20027;-77
2022/12/24 19:39:10;;;;;;;13.48;6.47;;;8.40;99.90;;;;;;7560193;19;20373;-76
2022/12/24 19:41:42;;;;;;;12.38;8.82;;;8.40;99.90;;;;;;7551589;19;20701;-74
2022/12/24 19:44:14;;;;;;;12.02;9.32;;;8.30;99.90;;;;;;7571184;19;20035;-74
2022/12/24 19:46:46;;;;;;;15.50;9.45;;;8.30;99.90;;;;;;7514969;19;20013;-75
2022/12/24 19:49:23;;;;;;;13.10;8.82;;;8.30;99.90;;;;;;7271316;19;10000359;-75
2022/12/24 19:51:55;;;;;;;11.80;6.90;;;8.30;99.90;;;;;;7529896;19;20265;-74
2022/12/24 19:54:27;;;;;;;11.68;6.85;;;8.40;99.90;;;;;;7538443;19;20041;-75
2022/12/24 19:56:59;;;;;;;10.65;6.85;;;8.30;99.90;;;;;;7525395;19;20039;-75
2022/12/24 19:59:31;;;;;;;11.10;7.15;;;8.30;99.90;;;;;;7525646;19;20647;-75
2022/12/24 20:02:03;;;;;;;12.60;7.70;;;8.40;99.90;;;;;;7529607;19;20025;-74
2022/12/24 20:04:36;;;;;;;15.73;9.27;;;8.30;99.90;;;;;;7544615;19;20025;-76
2022/12/24 20:07:08;;;;;;;21.42;9.80;;;8.40;99.90;;;;;;7568142;19;20010;-75
2022/12/24 20:09:40;;;;;;;14.63;8.27;;;8.40;99.90;;;;;;7590860;19;20054;-76
2022/12/24 20:12:12;;;;;;;15.20;8.60;;;8.40;99.90;;;;;;7569124;19;20014;-77
2022/12/24 20:14:44;;;;;;;15.27;7.70;;;8.40;99.90;;;;;;7574232;19;20017;-75
2022/12/24 20:17:19;;;;;;;12.30;8.63;;;8.40;99.90;;;;;;7584467;19;20078;-77
2022/12/24 20:19:54;;;;;;;13.57;7.50;;;8.30;99.90;;;;;;7587917;19;20014;-77
2022/12/24 20:22:26;;;;;;;9.80;6.32;;;8.40;99.90;;;;;;7590223;19;20013;-76
2022/12/24 20:25:00;;;;;;;;;;;8.30;99.90;;;;;;7584192;19;20014;-76
2022/12/24 20:27:32;;;;;;;8.52;6.43;;;8.20;99.90;;;;;;7568111;19;19941;-76
2022/12/24 20:30:05;;;;;;;13.50;8.70;;;8.20;99.90;;;;;;7589672;19;20014;-75
2022/12/24 20:32:37;;;;;;;10.57;6.60;;;8.30;99.90;;;;;;7584404;19;20014;-76
2022/12/24 20:35:09;;;;;;;11.52;7.22;;;8.20;99.90;;;;;;7594660;19;20015;-76
2022/12/24 20:37:41;;;;;;;13.88;8.13;;;8.20;99.90;;;;;;7590483;19;20018;-76
2022/12/24 20:40:17;;;;;;;12.90;7.90;;;8.20;99.90;;;;;;7584049;19;20044;-76
2022/12/24 20:42:52;;;;;;;11.75;6.60;;;8.20;99.90;;;;;;7562526;19;20006;-76
2022/12/24 20:45:24;;;;;;;10.43;6.55;;;8.30;99.90;;;;;;7583322;19;20032;-76
2022/12/24 20:47:56;;;;;;;8.80;5.40;;;8.20;99.90;;;;;;7577149;19;20040;-76
2022/12/24 20:50:29;;;;;;;12.13;6.63;;;8.20;99.90;;;;;;7575241;19;20119;-76
2022/12/24 20:53:01;;;;;;;9.75;6.28;;;8.20;99.90;;;;;;7592280;19;20018;-76
2022/12/24 20:55:34;;;;;;;13.48;7.13;;;8.20;99.90;;;;;;7590034;19;20022;-76
2022/12/24 20:58:06;;;;;;;13.65;7.47;;;8.20;99.90;;;;;;7587829;19;20025;-77
2022/12/24 21:00:40;;;;;;;17.95;8.85;;;8.10;99.90;;;;;;7560756;19;20026;-75
2022/12/24 21:03:14;;;;;;;22.75;11.43;;;8.10;99.90;;;;;;7586104;19;20138;-77
2022/12/24 21:05:46;;;;;;;;;;;8.10;99.90;;;;;;7568783;19;20029;-75
2022/12/24 21:08:18;;;;;;;16.38;8.25;;;8.10;99.90;;;;;;7569501;19;21350;-75
2022/12/24 21:12:47;;;;;;;14.00;8.93;;;8.10;99.90;;;;;;7588010;19;20011;-75
2022/12/24 21:13:42;;;;;;;14.27;8.27;;;8.00;99.90;;;;;;7575355;19;20010;-77
2022/12/24 21:16:14;;;;;;;11.40;7.18;;;8.00;99.90;;;;;;7558432;19;20095;-78
2022/12/24 21:18:46;;;;;;;13.50;8.40;;;8.00;99.90;;;;;;7550800;19;20026;-76
2022/12/24 21:21:18;;;;;;;14.48;8.23;;;7.90;99.90;;;;;;7576349;19;20140;-76
2022/12/24 21:23:51;;;;;;;10.88;7.50;;;7.90;99.90;;;;;;7583437;19;20567;-76
2022/12/24 21:26:23;;;;;;;12.30;7.18;;;7.90;99.90;;;;;;7544075;19;20011;-76
2022/12/24 21:28:55;;;;;;;10.85;7.47;;;7.90;99.90;;;;;;7567554;19;20019;-77
2022/12/24 21:31:30;;;;;;;13.90;8.35;;;7.90;99.90;;;;;;7565376;19;20011;-81
2022/12/24 21:34:12;;;;;;;12.70;7.80;;;7.90;99.90;;;;;;7576188;19;20010;-78
2022/12/24 21:36:44;;;;;;;14.88;7.30;;;7.90;99.90;;;;;;7587531;19;20015;-76
2022/12/24 21:39:16;;;;;;;11.95;7.10;;;7.90;99.90;;;;;;7591725;19;20021;-77
2022/12/24 21:41:48;;;;;;;11.20;6.65;;;7.90;99.90;;;;;;7601528;19;20029;-76
2022/12/24 21:44:20;;;;;;;13.77;6.90;;;7.90;99.90;;;;;;7595210;19;20115;-76
2022/12/24 21:46:52;;;;;;;11.02;7.20;;;7.90;99.90;;;;;;7575465;19;20855;-76
2022/12/24 21:52:14;;;;;;;11.18;6.22;;;7.80;99.90;;;;;;7564837;19;20010;-76
2022/12/24 21:54:47;;;;;;;11.30;6.43;;;7.80;99.90;;;;;;7590817;19;20526;-76
2022/12/24 22:00:25;;;;;;;12.85;7.13;;;7.80;99.90;;;;;;7579966;19;20026;-74
2022/12/24 22:02:58;;;;;;;11.20;6.95;;;7.80;99.90;;;;;;7594438;19;20023;-76
2022/12/24 22:05:33;;;;;;;10.48;6.47;;;7.80;99.90;;;;;;7595530;19;20031;-75
2022/12/24 22:13:52;;;;;;;11.45;6.93;;;7.70;99.90;;;;;;7570278;19;20105;-75
2022/12/24 22:16:26;;;;;;;26.27;10.48;;;7.70;99.90;;;;;;7539985;19;20038;-76
2022/12/24 22:18:58;;;;;;;24.15;9.93;;;7.70;99.90;;;;;;7496820;19;20026;-77
